KVSF/VSF METAR and TAF weather

Enter ICAO airport designator
Station Type Date Time Source
KVSF METAR 2021/08/05 03:54 UTC NOAA

KVSF 050354Z AUTO 00000KT 10SM BKN090 OVC120 16/16 A3018 RMK AO2 SLP220 T01610156


Station Type Date Time Source
KVSF Decoded METAR 2021/08/05 03:54 UTC NOAA

HARTNESS STATE AIRPORT, VT, United States (KVSF) 43-21N 72-31W 175M
Aug 04, 2021 - 11:54 PM EDT / 2021.08.05 0354 UTC
Wind: Calm:0
Visibility: 10 mile(s):0
Sky conditions: overcast
Temperature: 61.0 F (16.1 C)
Dew Point: 60.1 F (15.6 C)
Relative Humidity: 96%
Pressure (altimeter): 30.18 in. Hg (1022 hPa)
ob: KVSF 050354Z AUTO 00000KT 10SM BKN090 OVC120 16/16 A3018 RMK AO2 SLP220 T01610156
cycle: 4

Station Type Date Time Source
KVSF TAF UTC NOAA

Error!

Example: see airport list